createdAt,value
2023-05-05T00:00:00.702Z,5.53
2023-05-05T00:02:30.962Z,5.47
2023-05-05T00:05:00.796Z,5.85
2023-05-05T00:07:30.637Z,5.20
2023-05-05T00:10:00.316Z,5.35
2023-05-05T00:12:30.477Z,5.50
2023-05-05T00:15:00.483Z,5.72
2023-05-05T00:17:30.608Z,5.53
2023-05-05T00:20:00.376Z,5.78
2023-05-05T00:22:30.466Z,6.07
2023-05-05T00:25:00.931Z,5.75
2023-05-05T00:27:30.430Z,5.88
2023-05-05T00:30:00.128Z,6.45
2023-05-05T00:32:29.969Z,6.40
2023-05-05T00:35:00.543Z,5.38
2023-05-05T00:37:33.097Z,6.13
2023-05-05T00:40:02.627Z,5.78
2023-05-05T00:42:52.544Z,5.47
2023-05-05T00:45:22.759Z,6.30
2023-05-05T00:48:01.954Z,5.47
2023-05-05T00:50:32.384Z,5.18
2023-05-05T00:53:06.782Z,5.35
2023-05-05T00:55:37.372Z,5.28
2023-05-05T00:58:08.286Z,6.22
2023-05-05T01:00:38.429Z,6.20
2023-05-05T01:03:08.730Z,5.20
2023-05-05T01:07:01.206Z,5.88
2023-05-05T01:10:19.662Z,5.22
2023-05-05T01:13:40.705Z,5.70
2023-05-05T01:17:04.569Z,5.40
2023-05-05T01:21:09.102Z,5.32
2023-05-05T01:24:18.602Z,5.55
2023-05-05T01:27:27.889Z,6.63
2023-05-05T01:30:44.975Z,5.95
2023-05-05T01:33:26.498Z,5.85
2023-05-05T01:36:10.619Z,5.63
2023-05-05T01:38:47.416Z,5.07
2023-05-05T01:41:22.327Z,5.28
2023-05-05T01:43:58.671Z,5.22
2023-05-05T01:46:31.209Z,5.20
2023-05-05T01:49:02.252Z,5.65
2023-05-05T01:51:36.745Z,6.13
2023-05-05T01:54:10.557Z,5.85
2023-05-05T01:56:44.697Z,5.95
2023-05-05T01:59:17.974Z,5.43
2023-05-05T02:01:52.291Z,6.00
2023-05-05T02:04:26.944Z,5.93
2023-05-05T02:07:01.013Z,6.30
2023-05-05T02:09:31.691Z,6.18
2023-05-05T02:12:04.051Z,6.35
2023-05-05T02:14:37.157Z,5.57
2023-05-05T02:17:09.877Z,5.55
2023-05-05T02:19:47.855Z,5.07
2023-05-05T02:22:18.225Z,5.53
2023-05-05T02:24:48.340Z,5.47
2023-05-05T02:27:24.496Z,5.13
2023-05-05T02:30:08.694Z,5.93
2023-05-05T02:32:48.104Z,5.35
2023-05-05T02:35:28.848Z,5.40
2023-05-05T02:38:06.339Z,5.78
2023-05-05T02:40:43.735Z,5.70
2023-05-05T02:43:23.328Z,5.43
2023-05-05T02:45:53.748Z,5.15
2023-05-05T02:48:24.401Z,5.90
2023-05-05T02:50:54.518Z,6.00
2023-05-05T02:53:29.070Z,7.10
2023-05-05T02:56:26.769Z,5.78
2023-05-05T02:59:16.434Z,6.32
2023-05-05T03:02:23.253Z,6.03
2023-05-05T03:05:13.516Z,5.95
2023-05-05T03:08:10.996Z,5.43
2023-05-05T03:11:04.432Z,5.53
2023-05-05T03:13:37.966Z,5.65
2023-05-05T03:16:11.816Z,6.43
2023-05-05T03:18:47.169Z,5.63
2023-05-05T03:21:19.110Z,6.07
2023-05-05T03:23:49.665Z,5.97
2023-05-05T03:26:19.880Z,6.13
2023-05-05T03:28:49.975Z,6.20
2023-05-05T03:31:20.207Z,5.28
2023-05-05T03:33:50.374Z,5.55
2023-05-05T03:36:20.458Z,6.72
2023-05-05T03:38:50.773Z,6.20
2023-05-05T03:41:23.828Z,6.15
2023-05-05T03:43:54.639Z,6.97
2023-05-05T03:46:24.725Z,5.68
2023-05-05T03:48:57.286Z,5.95
2023-05-05T03:51:28.255Z,5.60
2023-05-05T03:53:58.467Z,6.90
2023-05-05T03:56:28.614Z,6.72
2023-05-05T03:58:58.817Z,6.38
2023-05-05T04:01:30.139Z,6.70
2023-05-05T04:04:00.264Z,7.18
2023-05-05T04:06:31.993Z,6.22
2023-05-05T04:09:02.247Z,6.85
2023-05-05T04:11:32.480Z,6.28
2023-05-05T04:14:02.701Z,7.25
2023-05-05T04:16:33.031Z,6.22
2023-05-05T04:19:04.126Z,6.20
2023-05-05T04:21:35.428Z,6.47
2023-05-05T04:24:06.343Z,6.38
2023-05-05T04:26:36.616Z,7.65
2023-05-05T04:29:06.954Z,6.57
2023-05-05T04:31:37.108Z,6.60
2023-05-05T04:34:07.231Z,6.55
2023-05-05T04:36:37.824Z,6.35
2023-05-05T04:39:08.826Z,5.57
2023-05-05T04:41:38.918Z,6.70
2023-05-05T04:44:07.384Z,6.88
2023-05-05T04:46:35.815Z,6.13
2023-05-05T04:49:05.928Z,6.28
2023-05-05T04:51:35.660Z,6.18
2023-05-05T04:54:04.237Z,6.38
2023-05-05T04:56:32.591Z,7.18
2023-05-05T04:59:00.893Z,6.43
2023-05-05T05:01:29.361Z,6.93
2023-05-05T05:03:57.934Z,7.40
2023-05-05T05:06:26.148Z,6.13
2023-05-05T05:08:54.533Z,6.72
2023-05-05T05:11:23.118Z,6.72
2023-05-05T05:13:51.359Z,6.85
2023-05-05T05:16:19.908Z,6.88
2023-05-05T05:18:48.302Z,7.00
2023-05-05T05:21:16.822Z,6.68
2023-05-05T05:23:45.042Z,6.85
2023-05-05T05:26:13.554Z,7.63
2023-05-05T05:28:41.915Z,6.80
2023-05-05T05:31:10.243Z,7.43
2023-05-05T05:33:38.658Z,6.55
2023-05-05T05:36:07.245Z,5.80
2023-05-05T05:38:35.621Z,7.03
2023-05-05T05:41:07.862Z,7.63
2023-05-05T05:43:37.914Z,6.82
2023-05-05T05:46:09.186Z,7.32
2023-05-05T05:48:39.587Z,7.45
2023-05-05T05:51:09.556Z,7.20
2023-05-05T05:53:39.286Z,7.18
2023-05-05T05:56:10.021Z,7.10
2023-05-05T05:58:40.728Z,7.43
2023-05-05T06:01:11.050Z,6.75
2023-05-05T06:03:41.126Z,8.32
2023-05-05T06:06:11.178Z,7.85
2023-05-05T06:08:40.860Z,7.55
2023-05-05T06:11:10.833Z,8.00
2023-05-05T06:13:40.525Z,7.28
2023-05-05T06:16:10.476Z,7.25
2023-05-05T06:18:40.261Z,7.65
2023-05-05T06:21:10.029Z,7.10
2023-05-05T06:23:40.023Z,7.10
2023-05-05T06:26:09.670Z,7.05
2023-05-05T06:28:39.583Z,6.80
2023-05-05T06:31:09.779Z,7.55
2023-05-05T06:33:39.511Z,7.95
2023-05-05T06:36:09.551Z,7.60
2023-05-05T06:38:39.663Z,6.57
2023-05-05T06:41:09.444Z,8.32
2023-05-05T06:43:39.842Z,7.68
2023-05-05T06:46:09.633Z,6.60
2023-05-05T06:48:39.646Z,6.75
2023-05-05T06:51:10.424Z,6.68
2023-05-05T06:53:40.214Z,7.97
2023-05-05T06:56:10.037Z,7.05
2023-05-05T06:58:39.781Z,7.05
2023-05-05T07:01:09.881Z,6.25
2023-05-05T07:03:40.025Z,6.85
2023-05-05T07:06:09.888Z,6.63
2023-05-05T07:08:38.220Z,6.45
2023-05-05T07:11:07.239Z,6.75
2023-05-05T07:13:35.092Z,6.20
2023-05-05T07:16:03.699Z,6.28
2023-05-05T07:18:31.902Z,6.90
2023-05-05T07:21:01.480Z,6.13
2023-05-05T07:23:28.720Z,6.65
2023-05-05T07:25:57.390Z,6.68
2023-05-05T07:28:25.622Z,7.35
2023-05-05T07:30:54.255Z,6.18
2023-05-05T07:33:22.751Z,5.80
2023-05-05T07:35:50.880Z,6.43
2023-05-05T07:38:19.310Z,6.13
2023-05-05T07:40:47.680Z,5.80
2023-05-05T07:43:16.166Z,5.75
2023-05-05T07:45:44.587Z,5.18
2023-05-05T07:48:12.958Z,6.35
2023-05-05T07:50:41.378Z,6.82
2023-05-05T07:53:14.226Z,5.45
2023-05-05T07:55:45.260Z,6.00
2023-05-05T07:58:15.005Z,6.30
2023-05-05T08:00:44.796Z,5.75
2023-05-05T08:03:14.694Z,5.35
2023-05-05T08:05:44.643Z,5.18
2023-05-05T08:08:14.506Z,5.82
2023-05-05T08:10:44.241Z,5.70
2023-05-05T08:13:14.053Z,6.07
2023-05-05T08:15:45.290Z,5.72
2023-05-05T08:18:15.606Z,5.53
2023-05-05T08:20:45.621Z,6.00
2023-05-05T08:23:15.615Z,5.68
2023-05-05T08:25:45.653Z,6.45
2023-05-05T08:28:15.434Z,6.20
2023-05-05T08:30:45.418Z,6.63
2023-05-05T08:33:15.762Z,5.90
2023-05-05T08:35:45.152Z,6.32
2023-05-05T08:38:15.448Z,6.20
2023-05-05T08:40:45.819Z,6.82
2023-05-05T08:43:16.114Z,5.82
2023-05-05T08:45:47.218Z,6.80
2023-05-05T08:48:23.150Z,5.75
2023-05-05T08:51:01.930Z,5.97
2023-05-05T08:53:58.954Z,6.10
2023-05-05T08:56:34.518Z,6.25
2023-05-05T08:59:05.351Z,5.75
2023-05-05T09:01:36.877Z,6.40
2023-05-05T09:04:09.836Z,5.70
2023-05-05T09:06:40.619Z,5.60
2023-05-05T09:09:12.120Z,6.07
2023-05-05T09:11:45.171Z,6.10
2023-05-05T09:14:15.303Z,5.60
2023-05-05T09:16:45.755Z,5.10
2023-05-05T09:19:15.855Z,5.55
2023-05-05T09:21:49.827Z,5.80
2023-05-05T09:24:20.416Z,5.57
2023-05-05T09:26:50.749Z,5.65
2023-05-05T09:29:22.519Z,5.28
2023-05-05T09:32:08.887Z,5.28
2023-05-05T09:34:38.246Z,4.80
2023-05-05T09:37:07.883Z,5.13
2023-05-05T09:39:36.338Z,5.18
2023-05-05T09:42:05.499Z,5.03
2023-05-05T09:44:40.208Z,4.97
2023-05-05T09:47:21.946Z,4.97
2023-05-05T09:49:59.286Z,5.03
2023-05-05T09:52:30.631Z,4.97
2023-05-05T09:55:00.558Z,5.10
2023-05-05T09:57:34.335Z,5.43
2023-05-05T10:00:06.558Z,5.28
2023-05-05T10:02:39.606Z,5.25
2023-05-05T10:05:18.009Z,5.55
2023-05-05T10:07:48.360Z,5.47
2023-05-05T10:10:19.356Z,5.43
2023-05-05T10:12:51.392Z,5.18
2023-05-05T10:15:23.060Z,6.15
2023-05-05T10:18:07.003Z,4.82
2023-05-05T10:20:42.119Z,5.10
2023-05-05T10:23:20.655Z,4.95
2023-05-05T10:26:04.992Z,5.15
2023-05-05T10:28:51.141Z,5.22
2023-05-05T10:31:49.276Z,5.53
2023-05-05T10:34:51.527Z,5.78
2023-05-05T10:37:23.288Z,5.32
2023-05-05T10:39:57.933Z,5.00
2023-05-05T10:42:28.263Z,4.35
2023-05-05T10:44:58.367Z,5.13
2023-05-05T10:47:29.507Z,6.30
2023-05-05T10:50:29.691Z,5.40
2023-05-05T10:53:24.240Z,5.30
2023-05-05T10:56:22.123Z,5.45
2023-05-05T10:58:59.617Z,5.07
2023-05-05T11:01:36.560Z,4.93
2023-05-05T11:04:23.299Z,5.47
2023-05-05T11:07:11.072Z,5.07
2023-05-05T11:10:03.661Z,4.82
2023-05-05T11:12:59.399Z,5.78
2023-05-05T11:15:29.665Z,5.30
2023-05-05T11:18:07.310Z,4.88
2023-05-05T11:20:41.003Z,4.88
2023-05-05T11:23:11.010Z,4.53
2023-05-05T11:25:47.305Z,6.18
2023-05-05T11:28:31.231Z,5.15
2023-05-05T11:31:01.378Z,5.20
2023-05-05T11:33:38.760Z,5.22
2023-05-05T11:36:15.857Z,4.63
2023-05-05T11:40:03.249Z,5.20
2023-05-05T11:42:34.043Z,4.95
2023-05-05T11:45:23.561Z,4.35
2023-05-05T11:48:28.651Z,4.55
2023-05-05T11:51:02.466Z,4.53
2023-05-05T11:53:32.457Z,4.10
2023-05-05T11:56:11.195Z,4.22
2023-05-05T11:58:41.760Z,4.90
2023-05-05T12:01:13.445Z,5.05
2023-05-05T12:03:45.965Z,4.93
2023-05-05T12:06:16.155Z,4.93
2023-05-05T12:08:45.913Z,4.70
2023-05-05T12:11:16.200Z,4.40
2023-05-05T12:13:46.539Z,4.55
2023-05-05T12:16:16.862Z,4.32
2023-05-05T12:18:47.045Z,4.28
2023-05-05T12:21:19.988Z,4.82
2023-05-05T12:23:50.463Z,4.55
2023-05-05T12:26:32.095Z,4.80
2023-05-05T12:29:01.745Z,4.22
2023-05-05T12:31:42.378Z,4.40
2023-05-05T12:34:13.405Z,3.95
2023-05-05T12:36:43.141Z,4.40
2023-05-05T12:39:13.617Z,4.28
2023-05-05T12:41:43.718Z,4.05
2023-05-05T12:44:13.883Z,4.20
2023-05-05T12:46:49.471Z,4.30
2023-05-05T12:49:19.585Z,4.45
2023-05-05T12:51:57.359Z,3.95
2023-05-05T12:54:25.382Z,4.55
2023-05-05T12:57:00.035Z,4.30
2023-05-05T12:59:30.926Z,3.95
2023-05-05T13:02:01.842Z,4.15
2023-05-05T13:04:32.796Z,3.75
2023-05-05T13:07:16.497Z,4.38
2023-05-05T13:09:47.357Z,4.03
2023-05-05T13:12:22.138Z,4.10
2023-05-05T13:14:53.848Z,3.95
2023-05-05T13:17:23.925Z,4.00
2023-05-05T13:19:54.271Z,3.92
2023-05-05T13:22:24.439Z,3.53
2023-05-05T13:24:54.653Z,4.03
2023-05-05T13:27:23.090Z,3.97
2023-05-05T13:29:53.133Z,3.67
2023-05-05T13:32:23.455Z,4.28
2023-05-05T13:34:53.271Z,3.72
2023-05-05T13:37:23.150Z,3.72
2023-05-05T13:39:53.130Z,3.75
2023-05-05T13:42:22.856Z,4.32
2023-05-05T13:44:52.681Z,4.00
2023-05-05T13:47:22.506Z,4.53
2023-05-05T13:49:52.724Z,4.10
2023-05-05T13:52:22.436Z,11.68
2023-05-05T13:54:52.209Z,5.72
2023-05-05T13:57:22.192Z,3.90
2023-05-05T13:59:52.145Z,3.92
2023-05-05T14:02:21.581Z,4.00
2023-05-05T14:04:51.235Z,3.60
2023-05-05T14:07:21.582Z,3.88
2023-05-05T14:09:51.650Z,3.45
2023-05-05T14:12:21.558Z,3.80
2023-05-05T14:14:51.282Z,3.92
2023-05-05T14:17:21.014Z,3.85
2023-05-05T14:19:51.187Z,3.85
2023-05-05T14:22:21.434Z,4.00
2023-05-05T14:24:51.083Z,3.88
2023-05-05T14:27:20.922Z,3.50
2023-05-05T14:29:50.633Z,3.55
2023-05-05T14:32:20.345Z,3.42
2023-05-05T14:34:50.584Z,3.75
2023-05-05T14:37:21.038Z,4.15
2023-05-05T14:39:50.458Z,3.67
2023-05-05T14:42:20.252Z,3.75
2023-05-05T14:44:50.032Z,3.95
2023-05-05T14:47:20.008Z,4.00
2023-05-05T14:49:49.803Z,3.70
2023-05-05T14:52:19.567Z,3.47
2023-05-05T14:54:49.230Z,3.70
2023-05-05T14:57:19.083Z,3.80
2023-05-05T14:59:51.963Z,3.65
2023-05-05T15:02:21.865Z,3.95
2023-05-05T15:04:53.111Z,4.10
2023-05-05T15:07:28.430Z,3.47
2023-05-05T15:09:58.570Z,3.65
2023-05-05T15:12:28.358Z,3.53
2023-05-05T15:14:58.170Z,4.10
2023-05-05T15:17:28.744Z,4.55
2023-05-05T15:19:58.159Z,3.80
2023-05-05T15:22:27.884Z,4.68
2023-05-05T15:24:57.586Z,3.75
2023-05-05T15:27:27.699Z,3.40
2023-05-05T15:29:57.869Z,3.28
2023-05-05T15:32:28.405Z,4.40
2023-05-05T15:34:58.631Z,4.07
2023-05-05T15:37:29.093Z,3.75
2023-05-05T15:39:59.276Z,3.67
2023-05-05T15:42:31.813Z,3.70
2023-05-05T15:45:01.704Z,3.60
2023-05-05T15:47:31.250Z,4.35
2023-05-05T15:50:01.086Z,4.65
2023-05-05T15:52:31.320Z,3.65
2023-05-05T15:55:01.961Z,4.15
2023-05-05T15:57:33.357Z,3.88
2023-05-05T16:00:02.288Z,3.72
2023-05-05T16:02:32.393Z,4.30
2023-05-05T16:05:02.527Z,3.67
2023-05-05T16:07:32.275Z,4.38
2023-05-05T16:10:02.790Z,4.07
2023-05-05T16:12:32.302Z,4.53
2023-05-05T16:15:02.222Z,3.72
2023-05-05T16:17:32.055Z,4.38
2023-05-05T16:20:01.969Z,4.55
2023-05-05T16:22:31.987Z,4.38
2023-05-05T16:25:00.440Z,4.00
2023-05-05T16:27:28.990Z,4.25
2023-05-05T16:29:59.551Z,5.03
2023-05-05T16:32:28.709Z,4.47
2023-05-05T16:34:57.246Z,4.30
2023-05-05T16:37:25.574Z,4.45
2023-05-05T16:39:53.888Z,4.00
2023-05-05T16:42:22.825Z,4.93
2023-05-05T16:44:50.760Z,4.10
2023-05-05T16:47:19.182Z,3.97
2023-05-05T16:49:47.534Z,4.47
2023-05-05T16:52:16.081Z,4.55
2023-05-05T16:54:44.629Z,4.45
2023-05-05T16:57:13.788Z,4.45
2023-05-05T16:59:41.916Z,4.45
2023-05-05T17:02:09.848Z,4.65
2023-05-05T17:04:38.078Z,4.30
2023-05-05T17:07:06.572Z,4.63
2023-05-05T17:09:34.994Z,4.57
2023-05-05T17:12:05.573Z,5.72
2023-05-05T17:14:36.048Z,5.20
2023-05-05T17:17:06.228Z,4.55
2023-05-05T17:19:35.975Z,4.50
2023-05-05T17:22:05.731Z,4.72
2023-05-05T17:24:35.760Z,5.10
2023-05-05T17:27:05.267Z,4.90
2023-05-05T17:29:40.660Z,3.95
2023-05-05T17:32:10.099Z,4.75
2023-05-05T17:34:38.623Z,4.55
2023-05-05T17:37:07.043Z,4.70
2023-05-05T17:39:35.672Z,4.63
2023-05-05T17:42:04.134Z,4.38
2023-05-05T17:44:32.836Z,5.05
2023-05-05T17:47:02.980Z,4.85
2023-05-05T17:49:32.682Z,5.18
2023-05-05T17:52:01.371Z,5.82
2023-05-05T17:54:30.007Z,5.03
2023-05-05T17:56:59.773Z,5.28
2023-05-05T17:59:27.615Z,5.10
2023-05-05T18:01:56.302Z,4.93
2023-05-05T18:04:25.563Z,5.15
2023-05-05T18:06:57.653Z,4.78
2023-05-05T18:09:27.803Z,4.72
2023-05-05T18:11:57.868Z,5.20
2023-05-05T18:14:28.037Z,4.95
2023-05-05T18:16:57.784Z,5.45
2023-05-05T18:19:27.649Z,5.45
2023-05-05T18:22:00.584Z,5.22
2023-05-05T18:24:30.249Z,5.53
2023-05-05T18:27:00.063Z,5.80
2023-05-05T18:29:29.877Z,5.50
2023-05-05T18:31:59.809Z,5.32
2023-05-05T18:34:29.751Z,5.57
2023-05-05T18:37:00.650Z,5.78
2023-05-05T18:39:30.581Z,5.75
2023-05-05T18:42:00.973Z,6.03
2023-05-05T18:44:32.837Z,6.63
2023-05-05T18:47:03.150Z,5.97
2023-05-05T18:49:33.699Z,6.32
2023-05-05T18:52:03.219Z,6.43
2023-05-05T18:54:33.680Z,6.43
2023-05-05T18:57:03.605Z,6.78
2023-05-05T18:59:33.761Z,5.57
2023-05-05T19:02:03.589Z,6.43
2023-05-05T19:04:37.547Z,6.13
2023-05-05T19:07:07.710Z,6.78
2023-05-05T19:09:36.254Z,6.00
2023-05-05T19:12:04.700Z,6.45
2023-05-05T19:14:32.095Z,6.68
2023-05-05T19:17:01.646Z,5.97
2023-05-05T19:19:28.944Z,5.95
2023-05-05T19:21:58.260Z,6.20
2023-05-05T19:24:25.797Z,6.47
2023-05-05T19:26:54.257Z,6.95
2023-05-05T19:29:22.640Z,5.20
2023-05-05T19:31:51.064Z,6.40
2023-05-05T19:34:19.455Z,5.82
2023-05-05T19:36:47.852Z,6.43
2023-05-05T19:39:16.299Z,5.43
2023-05-05T19:41:44.940Z,5.85
2023-05-05T19:44:13.153Z,5.30
2023-05-05T19:46:41.625Z,5.75
2023-05-05T19:49:10.050Z,5.72
2023-05-05T19:51:38.337Z,5.68
2023-05-05T19:54:06.759Z,5.88
2023-05-05T19:56:35.304Z,5.68
2023-05-05T19:59:06.437Z,5.65
2023-05-05T20:01:35.662Z,5.95
2023-05-05T20:04:03.897Z,5.82
2023-05-05T20:06:32.981Z,6.15
2023-05-05T20:09:00.760Z,5.78
2023-05-05T20:11:29.534Z,5.03
2023-05-05T20:13:58.569Z,5.40
2023-05-05T20:16:28.681Z,5.50
2023-05-05T20:18:58.832Z,6.03
2023-05-05T20:21:29.224Z,6.32
2023-05-05T20:23:59.847Z,5.88
2023-05-05T20:26:29.977Z,5.93
2023-05-05T20:29:00.125Z,5.38
2023-05-05T20:31:30.400Z,5.10
2023-05-05T20:34:01.301Z,5.68
2023-05-05T20:36:31.468Z,6.03
2023-05-05T20:39:01.561Z,5.75
2023-05-05T20:41:31.792Z,5.65
2023-05-05T20:44:02.170Z,6.50
2023-05-05T20:46:33.561Z,6.50
2023-05-05T20:49:04.129Z,5.47
2023-05-05T20:51:35.263Z,5.97
2023-05-05T20:54:05.757Z,6.53
2023-05-05T20:56:35.847Z,5.25
2023-05-05T20:59:06.232Z,5.97
2023-05-05T21:01:36.442Z,5.65
2023-05-05T21:04:06.642Z,6.25
2023-05-05T21:06:36.739Z,6.47
2023-05-05T21:09:06.870Z,5.88
2023-05-05T21:11:37.509Z,5.55
2023-05-05T21:14:07.633Z,7.20
2023-05-05T21:16:38.358Z,6.72
2023-05-05T21:19:08.813Z,6.15
2023-05-05T21:21:38.934Z,6.72
2023-05-05T21:24:09.836Z,6.38
2023-05-05T21:26:37.551Z,5.78
2023-05-05T21:29:06.602Z,6.32
2023-05-05T21:31:34.363Z,6.03
2023-05-05T21:34:03.004Z,6.00
2023-05-05T21:36:32.012Z,7.03
2023-05-05T21:39:00.519Z,6.22
2023-05-05T21:41:28.367Z,5.95
2023-05-05T21:43:56.462Z,6.90
2023-05-05T21:46:24.953Z,6.57
2023-05-05T21:48:53.270Z,7.18
2023-05-05T21:51:23.604Z,6.50
2023-05-05T21:53:53.113Z,6.97
2023-05-05T21:56:21.582Z,6.63
2023-05-05T21:58:49.899Z,6.78
2023-05-05T22:01:18.421Z,7.00
2023-05-05T22:03:47.793Z,7.13
2023-05-05T22:06:20.552Z,6.75
2023-05-05T22:08:51.429Z,6.72
2023-05-05T22:11:21.565Z,6.57
2023-05-05T22:13:52.086Z,7.35
2023-05-05T22:16:22.207Z,6.45
2023-05-05T22:18:52.597Z,7.65
2023-05-05T22:21:22.764Z,6.82
2023-05-05T22:23:52.959Z,8.07
2023-05-05T22:26:23.082Z,7.20
2023-05-05T22:28:53.190Z,7.65
2023-05-05T22:31:23.351Z,6.88
2023-05-05T22:33:53.469Z,7.82
2023-05-05T22:36:23.648Z,7.53
2023-05-05T22:38:53.819Z,8.35
2023-05-05T22:41:22.279Z,8.55
2023-05-05T22:43:51.022Z,8.00
2023-05-05T22:46:19.127Z,8.30
2023-05-05T22:48:47.561Z,9.30
2023-05-05T22:51:16.560Z,8.10
2023-05-05T22:53:44.567Z,8.18
2023-05-05T22:56:12.844Z,8.02
2023-05-05T22:58:41.409Z,9.30
2023-05-05T23:01:10.023Z,9.38
2023-05-05T23:03:38.269Z,8.88
2023-05-05T23:06:07.312Z,8.80
2023-05-05T23:08:35.512Z,9.43
2023-05-05T23:11:03.901Z,9.57
2023-05-05T23:13:32.277Z,9.27
2023-05-05T23:16:00.736Z,8.43
2023-05-05T23:18:29.192Z,8.20
2023-05-05T23:20:57.683Z,9.75
2023-05-05T23:23:26.087Z,9.75
2023-05-05T23:25:54.602Z,9.40
2023-05-05T23:28:23.049Z,8.38
2023-05-05T23:30:51.437Z,9.20
2023-05-05T23:33:19.898Z,8.88
2023-05-05T23:35:48.610Z,8.77
2023-05-05T23:38:16.701Z,9.60
2023-05-05T23:40:45.382Z,9.40
2023-05-05T23:43:13.783Z,9.30
2023-05-05T23:45:42.354Z,8.73
2023-05-05T23:48:13.022Z,9.88
2023-05-05T23:50:42.491Z,8.95
2023-05-05T23:53:10.598Z,9.32
2023-05-05T23:55:38.969Z,9.52
2023-05-05T23:58:07.452Z,9.70
